Time;durP1;ratioP1;P1;durP2;ratioP2;P2;SDS_P1;SDS_P2;PMS_P1;PMS_P2;Temp;Humidity;BMP_temperature;BMP_pressure;BME280_temperature;BME280_humidity;BME280_pressure;Samples;Min_cycle;Max_cycle;Signal;HPM_P1;HPM_P2
2024/02/17 00:02:21;;;;;;;34.00;26.83;;;;;;;;;;5052745;28;20075;-63
2024/02/17 00:04:48;;;;;;;32.97;27.05;;;;;;;;;;5052190;28;20075;-62
2024/02/17 00:07:15;;;;;;;33.28;26.58;;;;;;;;;;5052762;28;20049;-62
2024/02/17 00:09:42;;;;;;;33.50;26.50;;;;;;;;;;5052141;28;20057;-63
2024/02/17 00:12:11;;;;;;;34.30;27.45;;;;;;;;;;5052435;28;20049;-62
2024/02/17 00:14:38;;;;;;;34.50;27.33;;;;;;;;;;5052209;28;20053;-62
2024/02/17 00:17:05;;;;;;;32.92;25.52;;;;;;;;;;5052533;28;20052;-63
2024/02/17 00:19:32;;;;;;;33.47;27.02;;;;;;;;;;5052196;28;20072;-62
2024/02/17 00:21:59;;;;;;;34.20;27.13;;;;;;;;;;5052225;28;20053;-62
2024/02/17 00:24:26;;;;;;;31.85;27.10;;;;;;;;;;5052357;28;20053;-62
2024/02/17 00:26:52;;;;;;;34.15;26.80;;;;;;;;;;5052182;28;20049;-62
2024/02/17 00:29:21;;;;;;;33.38;27.42;;;;;;;;;;5052102;28;20123;-63
2024/02/17 00:31:48;;;;;;;34.70;28.17;;;;;;;;;;5052219;28;20053;-62
2024/02/17 00:34:14;;;;;;;31.60;27.08;;;;;;;;;;5051949;28;20056;-62
2024/02/17 00:36:41;;;;;;;31.60;27.05;;;;;;;;;;5051709;28;20080;-62
2024/02/17 00:39:09;;;;;;;30.75;27.42;;;;;;;;;;5052191;28;20064;-62
2024/02/17 00:41:36;;;;;;;31.02;26.88;;;;;;;;;;5052046;28;20064;-62
2024/02/17 00:44:03;;;;;;;35.00;28.88;;;;;;;;;;5051765;28;20411;-62
2024/02/17 00:46:31;;;;;;;35.85;29.27;;;;;;;;;;5051848;28;20060;-62
2024/02/17 00:48:58;;;;;;;38.53;30.15;;;;;;;;;;5052141;28;20057;-62
2024/02/17 00:51:25;;;;;;;34.80;28.90;;;;;;;;;;5052080;28;20408;-62
2024/02/17 00:53:52;;;;;;;35.08;28.20;;;;;;;;;;5051719;28;20057;-62
2024/02/17 00:56:21;;;;;;;35.25;28.73;;;;;;;;;;5051879;28;20049;-62
2024/02/17 00:58:48;;;;;;;33.40;28.50;;;;;;;;;;5054288;28;20064;-62
2024/02/17 01:01:15;;;;;;;36.55;27.92;;;;;;;;;;5055542;28;20513;-62
2024/02/17 01:03:43;;;;;;;33.53;27.98;;;;;;;;;;5053750;28;20057;-62
2024/02/17 01:06:10;;;;;;;32.55;28.38;;;;;;;;;;5054786;28;20045;-62
2024/02/17 01:08:37;;;;;;;34.97;28.63;;;;;;;;;;5054991;28;20128;-62
2024/02/17 01:11:04;;;;;;;29.65;26.17;;;;;;;;;;5055022;28;20057;-61
2024/02/17 01:13:31;;;;;;;30.48;27.15;;;;;;;;;;5055462;28;20155;-62
2024/02/17 01:15:58;;;;;;;34.20;28.45;;;;;;;;;;5054948;28;20075;-61
2024/02/17 01:18:25;;;;;;;35.55;29.02;;;;;;;;;;5055069;28;20060;-61
2024/02/17 01:20:53;;;;;;;33.13;28.30;;;;;;;;;;5054804;28;20087;-61
2024/02/17 01:23:20;;;;;;;30.73;27.00;;;;;;;;;;5055183;28;20491;-62
2024/02/17 01:25:47;;;;;;;33.70;28.20;;;;;;;;;;5055250;28;20041;-61
2024/02/17 01:28:14;;;;;;;35.78;28.55;;;;;;;;;;5054650;28;20056;-62
2024/02/17 01:30:42;;;;;;;35.38;28.90;;;;;;;;;;5054871;28;20053;-62
2024/02/17 01:33:08;;;;;;;32.10;27.90;;;;;;;;;;5055057;28;20068;-61
2024/02/17 01:35:35;;;;;;;35.83;29.70;;;;;;;;;;5054788;28;20124;-62
2024/02/17 01:38:07;;;;;;;39.90;31.80;;;;;;;;;;5054996;28;20548;-61
2024/02/17 01:40:34;;;;;;;37.65;30.10;;;;;;;;;;5054920;28;20049;-61
2024/02/17 01:43:00;;;;;;;35.20;30.05;;;;;;;;;;5054513;28;20060;-61
2024/02/17 01:45:27;;;;;;;38.85;29.65;;;;;;;;;;5054087;28;20061;-61
2024/02/17 01:47:55;;;;;;;39.42;29.60;;;;;;;;;;5054684;28;20057;-61
2024/02/17 01:50:21;;;;;;;41.90;30.50;;;;;;;;;;5054589;28;20052;-61
2024/02/17 01:52:48;;;;;;;37.53;29.02;;;;;;;;;;5054578;28;20053;-61
2024/02/17 01:55:17;;;;;;;40.05;31.15;;;;;;;;;;5054653;28;20480;-61
2024/02/17 01:57:44;;;;;;;41.03;30.63;;;;;;;;;;5054699;28;20056;-61
2024/02/17 02:00:12;;;;;;;39.72;29.95;;;;;;;;;;5054364;28;20064;-61
2024/02/17 02:02:39;;;;;;;40.22;30.73;;;;;;;;;;5054401;28;20064;-61
2024/02/17 02:05:06;;;;;;;42.92;30.77;;;;;;;;;;5054349;28;20053;-62
2024/02/17 02:07:33;;;;;;;40.05;31.23;;;;;;;;;;5054329;28;20403;-61
2024/02/17 02:10:00;;;;;;;39.78;30.60;;;;;;;;;;5052999;28;20138;-61
2024/02/17 02:12:28;;;;;;;40.13;29.73;;;;;;;;;;5053605;28;20416;-61
2024/02/17 02:15:04;;;;;;;40.50;31.05;;;;;;;;;;5053868;28;20056;-61
2024/02/17 02:17:31;;;;;;;40.85;28.73;;;;;;;;;;5053828;28;20434;-62
2024/02/17 02:19:58;;;;;;;43.42;30.17;;;;;;;;;;5054102;28;20060;-62
2024/02/17 02:22:25;;;;;;;42.40;30.13;;;;;;;;;;5053936;28;20056;-61
2024/02/17 02:24:54;;;;;;;39.88;29.90;;;;;;;;;;5053307;28;20049;-61
2024/02/17 02:27:22;;;;;;;44.20;31.77;;;;;;;;;;5053873;28;20045;-61
2024/02/17 02:29:49;;;;;;;41.42;29.48;;;;;;;;;;5053344;28;20412;-61
2024/02/17 02:32:16;;;;;;;39.78;29.30;;;;;;;;;;5053540;28;20049;-62
2024/02/17 02:34:43;;;;;;;38.88;28.65;;;;;;;;;;5053290;28;20063;-61
2024/02/17 02:37:10;;;;;;;36.28;28.55;;;;;;;;;;5053513;28;20053;-61
2024/02/17 02:39:37;;;;;;;41.28;28.88;;;;;;;;;;5053104;28;20060;-61
2024/02/17 02:42:04;;;;;;;37.63;28.05;;;;;;;;;;5053554;28;20400;-61
2024/02/17 02:44:32;;;;;;;38.03;27.98;;;;;;;;;;5053349;28;20053;-61
2024/02/17 02:46:59;;;;;;;35.40;26.75;;;;;;;;;;5053053;28;20071;-61
2024/02/17 02:49:25;;;;;;;38.88;26.80;;;;;;;;;;5053092;28;20056;-61
2024/02/17 02:51:53;;;;;;;40.95;27.83;;;;;;;;;;5052943;28;20504;-61
2024/02/17 02:54:21;;;;;;;33.88;26.33;;;;;;;;;;5053232;28;20408;-61
2024/02/17 02:56:48;;;;;;;36.38;28.30;;;;;;;;;;5053246;28;20053;-61
2024/02/17 02:59:15;;;;;;;37.85;28.60;;;;;;;;;;5052886;28;20052;-61
2024/02/17 03:01:43;;;;;;;40.67;28.30;;;;;;;;;;5053125;28;20049;-61
2024/02/17 03:04:10;;;;;;;37.45;26.73;;;;;;;;;;5052976;28;20064;-61
2024/02/17 03:06:37;;;;;;;39.83;27.33;;;;;;;;;;5053080;28;20053;-61
2024/02/17 03:09:04;;;;;;;41.50;28.92;;;;;;;;;;5052696;28;20416;-61
2024/02/17 03:11:30;;;;;;;41.60;27.83;;;;;;;;;;5052807;28;20049;-61
2024/02/17 03:13:57;;;;;;;41.55;28.15;;;;;;;;;;5052977;28;20049;-61
2024/02/17 03:16:24;;;;;;;38.50;27.40;;;;;;;;;;5052897;28;20056;-61
2024/02/17 03:18:52;;;;;;;38.15;28.75;;;;;;;;;;5052877;28;20506;-61
2024/02/17 03:21:19;;;;;;;41.22;29.42;;;;;;;;;;5052767;28;20052;-61
2024/02/17 03:23:46;;;;;;;40.55;28.88;;;;;;;;;;5052570;28;20049;-61
2024/02/17 03:26:13;;;;;;;40.83;27.67;;;;;;;;;;5052427;28;20511;-61
2024/02/17 03:28:40;;;;;;;40.08;28.60;;;;;;;;;;5052758;28;20060;-60
2024/02/17 03:31:07;;;;;;;36.97;26.90;;;;;;;;;;5052640;28;20053;-61
2024/02/17 03:33:34;;;;;;;39.65;29.40;;;;;;;;;;5052818;28;20496;-61
2024/02/17 03:36:02;;;;;;;35.53;27.48;;;;;;;;;;5052506;28;20045;-61
2024/02/17 03:38:29;;;;;;;38.33;28.92;;;;;;;;;;5052042;28;20049;-61
2024/02/17 03:40:55;;;;;;;33.83;25.40;;;;;;;;;;5052503;28;20061;-61
2024/02/17 03:43:22;;;;;;;42.70;27.73;;;;;;;;;;5052597;28;20053;-61
2024/02/17 03:45:49;;;;;;;39.60;27.38;;;;;;;;;;5052214;28;20060;-60
2024/02/17 03:48:16;;;;;;;37.20;27.25;;;;;;;;;;5052566;28;20381;-60
2024/02/17 03:50:43;;;;;;;42.45;29.42;;;;;;;;;;5052095;28;20412;-60
2024/02/17 03:53:11;;;;;;;39.20;26.77;;;;;;;;;;5052025;28;20053;-60
2024/02/17 03:55:37;;;;;;;39.72;28.00;;;;;;;;;;5052398;28;20075;-60
2024/02/17 03:58:04;;;;;;;36.42;26.35;;;;;;;;;;5052193;28;20420;-60
2024/02/17 04:00:31;;;;;;;36.55;26.08;;;;;;;;;;5052120;28;20060;-61
2024/02/17 04:02:58;;;;;;;35.70;26.00;;;;;;;;;;5052714;28;20052;-60
2024/02/17 04:05:25;;;;;;;35.55;26.10;;;;;;;;;;5052283;28;20056;-61
2024/02/17 04:07:51;;;;;;;40.10;27.02;;;;;;;;;;5052394;28;20480;-60
2024/02/17 04:10:19;;;;;;;39.85;27.20;;;;;;;;;;5052333;28;20056;-59
2024/02/17 04:12:46;;;;;;;38.50;26.50;;;;;;;;;;5052372;28;20049;-59
2024/02/17 04:15:13;;;;;;;35.47;26.23;;;;;;;;;;5051823;28;20072;-60
2024/02/17 04:17:41;;;;;;;38.92;25.38;;;;;;;;;;5052084;28;20045;-61
2024/02/17 04:20:08;;;;;;;34.50;25.27;;;;;;;;;;5052192;28;20056;-59
2024/02/17 04:22:35;;;;;;;37.95;27.50;;;;;;;;;;5052145;28;20480;-60
2024/02/17 04:25:02;;;;;;;41.88;27.33;;;;;;;;;;5051812;28;20052;-60
2024/02/17 04:27:30;;;;;;;34.88;25.23;;;;;;;;;;5051962;28;20060;-59
2024/02/17 04:29:58;;;;;;;36.33;27.05;;;;;;;;;;5051803;28;20052;-60
2024/02/17 04:32:25;;;;;;;33.97;24.95;;;;;;;;;;5052271;28;20075;-59
2024/02/17 04:34:52;;;;;;;34.60;24.75;;;;;;;;;;5055691;28;20511;-59
2024/02/17 04:37:19;;;;;;;36.78;26.23;;;;;;;;;;5055747;28;20058;-60
2024/02/17 04:39:46;;;;;;;34.28;26.10;;;;;;;;;;5055349;28;20049;-60
2024/02/17 04:42:13;;;;;;;41.10;28.45;;;;;;;;;;5055672;28;20060;-60
2024/02/17 04:44:41;;;;;;;41.05;29.08;;;;;;;;;;5055423;28;20049;-61
2024/02/17 04:47:08;;;;;;;39.97;28.67;;;;;;;;;;5055398;28;20403;-60
2024/02/17 04:49:35;;;;;;;38.97;27.75;;;;;;;;;;5055585;28;20060;-60
2024/02/17 04:52:02;;;;;;;36.28;26.95;;;;;;;;;;5055647;28;20381;-60
2024/02/17 04:54:29;;;;;;;40.10;27.52;;;;;;;;;;5055288;28;20063;-60
2024/02/17 04:56:56;;;;;;;38.50;27.27;;;;;;;;;;5055527;28;20049;-60
2024/02/17 04:59:23;;;;;;;38.55;28.88;;;;;;;;;;5055715;28;20060;-61
2024/02/17 05:01:51;;;;;;;41.20;29.75;;;;;;;;;;5055323;28;20060;-61
2024/02/17 05:04:17;;;;;;;35.92;28.02;;;;;;;;;;5055379;28;20057;-61
2024/02/17 05:06:46;;;;;;;43.13;31.02;;;;;;;;;;5055214;28;20395;-61
2024/02/17 05:09:13;;;;;;;37.30;28.25;;;;;;;;;;5055395;28;20060;-61
2024/02/17 05:11:41;;;;;;;42.72;29.58;;;;;;;;;;5055422;28;20480;-61
2024/02/17 05:14:08;;;;;;;41.13;30.80;;;;;;;;;;5055253;28;20057;-61
2024/02/17 05:16:34;;;;;;;41.67;29.48;;;;;;;;;;5054973;28;20052;-61
2024/02/17 05:19:02;;;;;;;38.28;30.00;;;;;;;;;;5054940;28;20053;-62
2024/02/17 05:21:30;;;;;;;39.20;30.50;;;;;;;;;;5054930;28;20049;-62
2024/02/17 05:23:56;;;;;;;40.25;30.38;;;;;;;;;;5054702;28;20053;-62
2024/02/17 05:26:23;;;;;;;44.78;31.17;;;;;;;;;;5054757;28;20400;-61
2024/02/17 05:28:50;;;;;;;48.40;32.30;;;;;;;;;;5054978;28;20499;-61
2024/02/17 05:31:25;;;;;;;44.72;31.48;;;;;;;;;;5054576;28;20060;-61
2024/02/17 05:33:52;;;;;;;45.47;31.88;;;;;;;;;;5054559;28;20501;-61
2024/02/17 05:36:20;;;;;;;43.72;32.80;;;;;;;;;;5054589;28;20055;-61
2024/02/17 05:38:46;;;;;;;44.70;31.25;;;;;;;;;;5054348;28;20060;-61
2024/02/17 05:41:13;;;;;;;46.10;32.55;;;;;;;;;;5054451;28;20167;-61
2024/02/17 05:43:40;;;;;;;41.63;32.45;;;;;;;;;;5054403;28;20439;-61
2024/02/17 05:46:07;;;;;;;42.05;31.83;;;;;;;;;;5053324;28;20053;-61
2024/02/17 05:48:34;;;;;;;40.33;31.75;;;;;;;;;;5054362;28;20049;-61
2024/02/17 05:51:00;;;;;;;44.13;32.70;;;;;;;;;;5054554;28;20060;-61
2024/02/17 05:53:29;;;;;;;45.17;33.53;;;;;;;;;;5054125;28;20099;-61
2024/02/17 05:55:56;;;;;;;47.60;34.05;;;;;;;;;;5054009;28;20487;-61
2024/02/17 05:58:22;;;;;;;45.47;33.75;;;;;;;;;;5054174;28;20048;-62
2024/02/17 06:00:49;;;;;;;44.53;32.67;;;;;;;;;;5054306;28;20053;-61
2024/02/17 06:03:16;;;;;;;43.67;33.25;;;;;;;;;;5054024;28;20057;-61
2024/02/17 06:05:44;;;;;;;47.97;32.50;;;;;;;;;;5053593;28;20479;-61
2024/02/17 06:08:11;;;;;;;42.65;32.22;;;;;;;;;;5054044;28;20176;-61
2024/02/17 06:10:39;;;;;;;46.80;33.88;;;;;;;;;;5053439;28;20053;-60
2024/02/17 06:13:06;;;;;;;47.35;33.30;;;;;;;;;;5053301;28;20056;-60
2024/02/17 06:15:33;;;;;;;43.13;33.30;;;;;;;;;;5053469;28;20053;-60
2024/02/17 06:23:25;;;;;;;43.15;31.40;;;;;;;;;;5053760;28;20052;-60
2024/02/17 06:25:53;;;;;;;46.70;33.95;;;;;;;;;;5053284;28;20052;-60
2024/02/17 06:28:20;;;;;;;53.67;38.47;;;;;;;;;;5053561;28;20068;-60
2024/02/17 06:30:47;;;;;;;51.25;36.50;;;;;;;;;;5053657;28;20076;-60
2024/02/17 06:33:13;;;;;;;46.75;35.05;;;;;;;;;;5053476;28;20057;-60
2024/02/17 06:35:40;;;;;;;47.25;34.03;;;;;;;;;;5053225;28;20053;-61
2024/02/17 06:38:07;;;;;;;47.42;34.20;;;;;;;;;;5052809;28;20049;-61
2024/02/17 06:40:34;;;;;;;45.25;33.72;;;;;;;;;;5052820;28;20045;-60
2024/02/17 06:43:03;;;;;;;49.67;34.63;;;;;;;;;;5053196;28;20057;-60
2024/02/17 06:45:30;;;;;;;45.20;34.97;;;;;;;;;;5052919;28;20416;-61
2024/02/17 06:47:57;;;;;;;49.88;35.50;;;;;;;;;;5053517;28;20049;-60
2024/02/17 06:50:24;;;;;;;45.97;33.63;;;;;;;;;;5052870;28;20404;-61
2024/02/17 06:52:51;;;;;;;48.20;34.90;;;;;;;;;;5053039;28;20049;-60
2024/02/17 06:55:17;;;;;;;50.97;36.30;;;;;;;;;;5052657;28;20053;-60
2024/02/17 06:57:44;;;;;;;51.42;35.30;;;;;;;;;;5052385;28;20064;-61
2024/02/17 07:00:13;;;;;;;44.47;32.40;;;;;;;;;;5052461;28;20053;-62
2024/02/17 07:02:40;;;;;;;46.17;34.28;;;;;;;;;;5052528;28;20057;-61
2024/02/17 07:05:07;;;;;;;44.92;35.75;;;;;;;;;;5052466;28;20063;-61
2024/02/17 07:07:34;;;;;;;44.75;34.53;;;;;;;;;;5052970;28;20052;-61
2024/02/17 07:10:03;;;;;;;43.70;34.25;;;;;;;;;;5052715;28;20361;-61
2024/02/17 07:12:31;;;;;;;44.85;33.42;;;;;;;;;;5053176;28;20076;-61
2024/02/17 07:15:01;;;;;;;46.10;33.10;;;;;;;;;;5053150;28;20049;-60
2024/02/17 07:17:29;;;;;;;42.45;32.78;;;;;;;;;;5051329;28;20060;-61
2024/02/17 07:19:56;;;;;;;42.15;31.38;;;;;;;;;;5052382;28;20053;-61
2024/02/17 07:22:22;;;;;;;41.40;31.70;;;;;;;;;;5052932;28;20053;-61
2024/02/17 07:24:51;;;;;;;47.15;34.45;;;;;;;;;;5052671;28;20060;-61
2024/02/17 07:27:18;;;;;;;47.25;33.10;;;;;;;;;;5053024;28;20063;-61
2024/02/17 07:29:44;;;;;;;46.20;34.65;;;;;;;;;;5052302;28;20053;-62
2024/02/17 07:32:12;;;;;;;48.47;34.88;;;;;;;;;;5052619;28;20092;-61
2024/02/17 07:34:41;;;;;;;47.25;34.95;;;;;;;;;;5052391;28;20056;-61
2024/02/17 07:37:08;;;;;;;43.47;32.92;;;;;;;;;;5052619;28;20060;-61
2024/02/17 07:39:37;;;;;;;47.15;34.50;;;;;;;;;;5052001;28;20052;-61
2024/02/17 07:42:05;;;;;;;50.58;36.03;;;;;;;;;;5052779;28;20396;-61
2024/02/17 07:44:32;;;;;;;46.83;34.63;;;;;;;;;;5052387;28;20500;-61
2024/02/17 07:46:59;;;;;;;45.20;33.70;;;;;;;;;;5051905;28;20080;-61
2024/02/17 07:49:26;;;;;;;54.33;36.85;;;;;;;;;;5051974;28;20049;-61
2024/02/17 07:51:55;;;;;;;48.92;34.28;;;;;;;;;;5052640;28;20053;-62
2024/02/17 07:54:21;;;;;;;48.65;36.13;;;;;;;;;;5052049;28;20412;-61
2024/02/17 07:56:48;;;;;;;43.90;34.10;;;;;;;;;;5052310;28;20052;-62
2024/02/17 07:59:15;;;;;;;45.45;34.25;;;;;;;;;;5051792;28;20049;-61
2024/02/17 08:01:42;;;;;;;48.10;34.80;;;;;;;;;;5052321;28;20075;-61
2024/02/17 08:04:09;;;;;;;46.03;34.80;;;;;;;;;;5051823;28;20518;-60
2024/02/17 08:06:35;;;;;;;48.35;34.88;;;;;;;;;;5051584;28;20053;-61
2024/02/17 08:09:06;;;;;;;45.95;34.53;;;;;;;;;;5054124;28;20400;-61
2024/02/17 08:11:33;;;;;;;44.80;33.63;;;;;;;;;;5055520;28;20060;-61
2024/02/17 08:14:00;;;;;;;43.75;33.13;;;;;;;;;;5055672;28;20427;-61
2024/02/17 08:16:27;;;;;;;49.13;34.40;;;;;;;;;;5055669;28;20526;-61
2024/02/17 08:18:54;;;;;;;46.67;34.70;;;;;;;;;;5055156;28;20071;-61
2024/02/17 08:21:21;;;;;;;46.17;34.50;;;;;;;;;;5055346;28;20415;-61
2024/02/17 08:23:48;;;;;;;44.42;34.55;;;;;;;;;;5054551;28;20053;-61
2024/02/17 08:26:17;;;;;;;47.35;33.88;;;;;;;;;;5055202;28;20076;-60
2024/02/17 08:28:44;;;;;;;48.65;35.80;;;;;;;;;;5055370;28;20500;-60
2024/02/17 08:31:11;;;;;;;58.25;37.80;;;;;;;;;;5055463;28;20492;-60
2024/02/17 08:33:38;;;;;;;48.22;34.85;;;;;;;;;;5055430;28;20423;-60
2024/02/17 08:36:05;;;;;;;47.22;36.25;;;;;;;;;;5055439;28;20381;-60
2024/02/17 08:38:31;;;;;;;48.40;35.60;;;;;;;;;;5054885;28;20404;-60
2024/02/17 08:40:59;;;;;;;54.30;37.97;;;;;;;;;;5055300;28;20057;-60
2024/02/17 08:43:28;;;;;;;49.88;36.75;;;;;;;;;;5055647;28;20049;-61
2024/02/17 08:45:56;;;;;;;47.70;36.30;;;;;;;;;;5054961;28;20052;-60
2024/02/17 08:48:23;;;;;;;55.72;38.40;;;;;;;;;;5055596;28;20053;-59
2024/02/17 08:50:50;;;;;;;49.35;36.00;;;;;;;;;;5054947;28;20415;-60
2024/02/17 08:53:17;;;;;;;48.58;35.42;;;;;;;;;;5055237;28;20060;-60
2024/02/17 08:55:44;;;;;;;52.45;36.55;;;;;;;;;;5054548;28;20072;-60
2024/02/17 08:58:11;;;;;;;53.65;37.40;;;;;;;;;;5055061;28;20507;-60
2024/02/17 09:00:39;;;;;;;50.50;35.78;;;;;;;;;;5054948;28;20057;-59
2024/02/17 09:03:06;;;;;;;47.88;35.63;;;;;;;;;;5055020;28;20394;-59
2024/02/17 09:05:35;;;;;;;49.33;35.88;;;;;;;;;;5054871;28;20057;-59
2024/02/17 09:08:02;;;;;;;55.40;37.23;;;;;;;;;;5055011;28;20060;-59
2024/02/17 09:10:28;;;;;;;49.20;36.47;;;;;;;;;;5054896;28;20056;-60
2024/02/17 09:12:54;;;;;;;51.95;36.20;;;;;;;;;;5054883;28;20049;-59
2024/02/17 09:15:21;;;;;;;53.88;37.35;;;;;;;;;;5054988;28;20492;-59
2024/02/17 09:17:49;;;;;;;55.63;37.75;;;;;;;;;;5054924;28;20063;-59
2024/02/17 09:20:16;;;;;;;55.47;37.67;;;;;;;;;;5053938;28;20079;-59
2024/02/17 09:22:43;;;;;;;48.75;34.72;;;;;;;;;;5054433;28;20056;-60
2024/02/17 09:25:10;;;;;;;48.88;36.13;;;;;;;;;;5054494;28;20052;-59
2024/02/17 09:27:37;;;;;;;55.80;38.00;;;;;;;;;;5054813;28;20060;-59
2024/02/17 09:30:04;;;;;;;51.88;37.53;;;;;;;;;;5054528;28;20049;-61
2024/02/17 09:32:31;;;;;;;52.08;35.75;;;;;;;;;;5054663;28;20060;-59
2024/02/17 09:34:59;;;;;;;52.42;38.17;;;;;;;;;;5054022;28;20069;-60
2024/02/17 09:37:26;;;;;;;51.15;36.00;;;;;;;;;;5054341;28;20385;-59
2024/02/17 09:39:53;;;;;;;47.60;36.40;;;;;;;;;;5054168;28;20052;-60
2024/02/17 09:42:19;;;;;;;53.55;37.88;;;;;;;;;;5054279;28;20049;-59
2024/02/17 09:44:48;;;;;;;51.17;36.38;;;;;;;;;;5054137;28;20412;-59
2024/02/17 09:47:14;;;;;;;49.85;34.97;;;;;;;;;;5053856;28;20056;-59
2024/02/17 09:49:41;;;;;;;49.15;35.10;;;;;;;;;;5054417;28;20045;-59
2024/02/17 09:52:11;;;;;;;48.03;36.65;;;;;;;;;;5054253;28;20057;-59
2024/02/17 09:54:38;;;;;;;50.10;36.78;;;;;;;;;;5054218;28;20057;-61
2024/02/17 09:57:06;;;;;;;52.00;36.83;;;;;;;;;;5054092;28;20052;-59
2024/02/17 09:59:33;;;;;;;54.20;38.30;;;;;;;;;;5053559;28;20045;-60
2024/02/17 10:01:59;;;;;;;57.30;39.53;;;;;;;;;;5053863;28;20060;-59
2024/02/17 10:04:26;;;;;;;53.53;39.03;;;;;;;;;;5053729;28;20404;-60
2024/02/17 10:07:00;;;;;;;62.00;40.75;;;;;;;;;;5053868;28;20053;-59
2024/02/17 10:09:29;;;;;;;55.92;39.03;;;;;;;;;;5053624;28;20052;-61
2024/02/17 10:11:55;;;;;;;56.60;39.10;;;;;;;;;;5054071;28;20056;-60
2024/02/17 10:14:23;;;;;;;56.95;37.15;;;;;;;;;;5053691;28;20052;-61
2024/02/17 10:16:56;;;;;;;53.70;38.17;;;;;;;;;;5053793;28;20053;-61
2024/02/17 10:19:23;;;;;;;50.03;37.28;;;;;;;;;;5053329;28;20075;-59
2024/02/17 10:21:50;;;;;;;52.95;37.53;;;;;;;;;;5053430;28;20049;-60
2024/02/17 10:24:17;;;;;;;51.05;37.17;;;;;;;;;;5053174;28;20049;-59
2024/02/17 10:26:50;;;;;;;52.38;37.00;;;;;;;;;;5053650;28;20063;-60
2024/02/17 10:29:17;;;;;;;52.65;38.47;;;;;;;;;;5053375;28;20399;-60
2024/02/17 10:31:47;;;;;;;52.50;36.92;;;;;;;;;;5052453;28;20056;-60
2024/02/17 10:34:13;;;;;;;;;;;;;;;;;;5053622;28;20060;-60
2024/02/17 10:36:41;;;;;;;53.42;38.20;;;;;;;;;;5053201;28;19928;-59
2024/02/17 10:39:08;;;;;;;49.92;36.60;;;;;;;;;;5053000;28;20053;-60
2024/02/17 10:41:35;;;;;;;51.03;36.17;;;;;;;;;;5053187;28;20049;-59
2024/02/17 10:44:04;;;;;;;50.30;37.25;;;;;;;;;;5053460;28;20064;-60
2024/02/17 10:46:32;;;;;;;50.38;36.35;;;;;;;;;;5052776;28;20079;-61
2024/02/17 10:49:03;;;;;;;48.43;35.73;;;;;;;;;;5053084;28;20084;-60
2024/02/17 10:51:30;;;;;;;50.17;37.00;;;;;;;;;;5052789;28;20056;-60
2024/02/17 10:54:00;;;;;;;50.10;37.58;;;;;;;;;;5052995;28;20049;-60
2024/02/17 10:56:27;;;;;;;50.80;35.90;;;;;;;;;;5052884;28;20511;-59
2024/02/17 10:58:55;;;;;;;46.28;35.00;;;;;;;;;;5052640;28;20053;-60
2024/02/17 11:01:25;;;;;;;54.05;37.78;;;;;;;;;;5052437;28;20511;-60
2024/02/17 11:03:53;;;;;;;51.83;36.90;;;;;;;;;;5052418;28;20056;-60
2024/02/17 11:06:21;;;;;;;52.17;38.28;;;;;;;;;;5052657;28;20057;-61
2024/02/17 11:08:48;;;;;;;55.92;36.00;;;;;;;;;;5052272;28;20059;-60
2024/02/17 11:11:25;;;;;;;51.22;36.15;;;;;;;;;;5052121;28;20052;-59
2024/02/17 11:13:52;;;;;;;52.88;36.30;;;;;;;;;;5051828;28;20064;-59
2024/02/17 11:16:19;;;;;;;49.50;36.80;;;;;;;;;;5052493;28;20060;-60
2024/02/17 11:18:50;;;;;;;50.15;34.55;;;;;;;;;;5052527;28;20060;-60
2024/02/17 11:21:24;;;;;;;54.22;35.33;;;;;;;;;;5052198;28;20045;-60
2024/02/17 11:23:51;;;;;;;56.20;38.65;;;;;;;;;;5052556;28;20053;-60
2024/02/17 11:26:18;;;;;;;53.75;36.10;;;;;;;;;;5052430;28;20052;-60
2024/02/17 11:28:46;;;;;;;55.03;38.20;;;;;;;;;;5052299;28;20114;-60
2024/02/17 11:31:13;;;;;;;58.20;37.92;;;;;;;;;;5052109;28;20049;-60
2024/02/17 11:33:42;;;;;;;54.95;35.78;;;;;;;;;;5052163;28;20400;-60
2024/02/17 11:36:10;;;;;;;;;;;;;;;;;;5052930;28;20053;-60
2024/02/17 11:38:38;;;;;;;53.47;38.97;;;;;;;;;;5058044;28;19921;-60
2024/02/17 11:41:05;;;;;;;53.03;37.80;;;;;;;;;;5071885;28;20048;-60
2024/02/17 11:43:33;;;;;;;48.60;36.28;;;;;;;;;;5072199;28;20475;-59
2024/02/17 11:46:00;;;;;;;54.22;38.00;;;;;;;;;;5071635;28;20054;-61
2024/02/17 11:48:27;;;;;;;49.28;35.53;;;;;;;;;;5072123;28;20064;-60
2024/02/17 11:51:03;;;;;;;50.40;38.13;;;;;;;;;;5072099;28;20376;-61
2024/02/17 11:53:47;;;;;;;53.05;36.85;;;;;;;;;;5072056;28;20388;-60
2024/02/17 11:56:14;;;;;;;49.33;36.42;;;;;;;;;;5072153;28;20403;-59
2024/02/17 11:58:42;;;;;;;51.75;36.33;;;;;;;;;;5072154;28;20510;-59
2024/02/17 12:01:10;;;;;;;48.10;35.55;;;;;;;;;;5071942;28;20055;-58
2024/02/17 12:03:36;;;;;;;48.75;34.55;;;;;;;;;;5072230;28;20063;-58
2024/02/17 12:06:03;;;;;;;48.20;33.85;;;;;;;;;;5071976;28;20048;-59
2024/02/17 12:08:31;;;;;;;50.00;35.55;;;;;;;;;;5071884;28;20526;-59
2024/02/17 12:10:59;;;;;;;46.35;34.78;;;;;;;;;;5071716;28;20049;-59
2024/02/17 12:13:26;;;;;;;45.47;34.50;;;;;;;;;;5071666;28;20053;-59
2024/02/17 12:15:53;;;;;;;46.13;33.47;;;;;;;;;;5071603;28;20056;-60
2024/02/17 12:18:21;;;;;;;49.80;34.55;;;;;;;;;;5071802;28;20052;-61
2024/02/17 12:20:48;;;;;;;41.95;32.80;;;;;;;;;;5071897;28;20052;-61
2024/02/17 12:23:15;;;;;;;51.17;35.33;;;;;;;;;;5071258;28;20067;-59
2024/02/17 12:25:42;;;;;;;45.42;34.33;;;;;;;;;;5071644;28;20415;-59
2024/02/17 12:28:11;;;;;;;47.33;34.75;;;;;;;;;;5070510;28;20507;-60
2024/02/17 12:30:46;;;;;;;47.00;34.33;;;;;;;;;;5071848;28;20384;-60
2024/02/17 12:33:12;;;;;;;48.58;33.33;;;;;;;;;;5071394;28;20415;-59
2024/02/17 12:35:43;;;;;;;45.55;30.88;;;;;;;;;;5071718;28;20052;-59
2024/02/17 12:38:10;;;;;;;40.58;30.83;;;;;;;;;;5069322;28;20064;-59
2024/02/17 12:40:37;;;;;;;40.13;30.10;;;;;;;;;;5051034;28;20049;-60
2024/02/17 12:43:04;;;;;;;42.13;30.80;;;;;;;;;;5051416;28;20438;-59
2024/02/17 12:45:33;;;;;;;42.42;29.35;;;;;;;;;;5051344;28;20053;-59
2024/02/17 12:48:01;;;;;;;40.17;30.30;;;;;;;;;;5051094;28;20057;-59
2024/02/17 12:50:28;;;;;;;46.28;31.52;;;;;;;;;;5051096;28;20060;-61
2024/02/17 12:53:06;;;;;;;42.35;30.67;;;;;;;;;;5052305;28;20147;-60
2024/02/17 12:55:33;;;;;;;40.50;28.92;;;;;;;;;;5054466;28;20053;-60
2024/02/17 12:58:00;;;;;;;43.65;30.50;;;;;;;;;;5054818;28;20053;-59
2024/02/17 13:00:27;;;;;;;41.88;30.65;;;;;;;;;;5054719;28;20052;-59
2024/02/17 13:02:55;;;;;;;45.78;31.10;;;;;;;;;;5055070;28;20057;-60
2024/02/17 13:05:22;;;;;;;42.75;30.35;;;;;;;;;;5054937;28;20057;-60
2024/02/17 13:07:49;;;;;;;42.00;31.10;;;;;;;;;;5054983;28;20057;-59
2024/02/17 13:10:16;;;;;;;42.72;30.58;;;;;;;;;;5055041;28;20053;-59
2024/02/17 13:12:43;;;;;;;43.03;29.02;;;;;;;;;;5054875;28;20048;-60
2024/02/17 13:15:11;;;;;;;41.95;31.10;;;;;;;;;;5054976;28;20060;-60
2024/02/17 13:17:38;;;;;;;40.58;29.92;;;;;;;;;;5055248;28;20075;-60
2024/02/17 13:20:07;;;;;;;43.80;31.23;;;;;;;;;;5055074;28;20381;-59
2024/02/17 13:22:34;;;;;;;38.45;30.73;;;;;;;;;;5054648;28;20056;-58
2024/02/17 13:25:01;;;;;;;37.10;28.33;;;;;;;;;;5054574;28;20056;-60
2024/02/17 13:27:27;;;;;;;39.33;28.48;;;;;;;;;;5054747;28;20053;-60
2024/02/17 13:29:54;;;;;;;34.72;27.65;;;;;;;;;;5054154;28;20056;-59
2024/02/17 13:32:21;;;;;;;40.33;29.85;;;;;;;;;;5054546;28;20455;-60
2024/02/17 13:34:48;;;;;;;40.33;29.17;;;;;;;;;;5054214;28;20064;-60
2024/02/17 13:37:16;;;;;;;38.10;27.27;;;;;;;;;;5054232;28;20053;-60
2024/02/17 13:39:43;;;;;;;37.38;27.63;;;;;;;;;;5054293;28;20053;-59
2024/02/17 13:42:10;;;;;;;39.92;27.92;;;;;;;;;;5054512;28;20064;-59
2024/02/17 13:44:38;;;;;;;32.95;26.08;;;;;;;;;;5054031;28;20055;-60
2024/02/17 13:47:05;;;;;;;33.92;25.58;;;;;;;;;;5054299;28;20057;-59
2024/02/17 13:49:32;;;;;;;33.70;24.45;;;;;;;;;;5054059;28;20413;-60
2024/02/17 13:51:59;;;;;;;33.97;25.27;;;;;;;;;;5053747;28;20068;-59
2024/02/17 13:54:27;;;;;;;29.88;23.67;;;;;;;;;;5053758;28;20056;-60
2024/02/17 13:56:54;;;;;;;34.83;24.35;;;;;;;;;;5053772;28;20057;-61
2024/02/17 13:59:20;;;;;;;30.95;23.55;;;;;;;;;;5053884;28;20049;-60
2024/02/17 14:01:47;;;;;;;31.20;23.30;;;;;;;;;;5053831;28;20049;-61
2024/02/17 14:04:15;;;;;;;28.77;21.40;;;;;;;;;;5053801;28;20473;-60
2024/02/17 14:06:42;;;;;;;21.23;18.25;;;;;;;;;;5052877;28;20072;-60
2024/02/17 14:09:09;;;;;;;24.23;18.55;;;;;;;;;;5053832;28;20416;-60
2024/02/17 14:11:37;;;;;;;23.67;17.83;;;;;;;;;;5053514;28;20049;-60
2024/02/17 14:14:04;;;;;;;22.20;18.52;;;;;;;;;;5053797;28;20053;-59
2024/02/17 14:16:31;;;;;;;23.02;18.73;;;;;;;;;;5053571;28;20057;-60
2024/02/17 14:18:57;;;;;;;22.95;19.35;;;;;;;;;;5053378;28;20404;-59
2024/02/17 14:21:24;;;;;;;24.88;19.15;;;;;;;;;;5053587;28;20089;-60
2024/02/17 14:23:52;;;;;;;22.90;19.33;;;;;;;;;;5053325;28;20049;-60
2024/02/17 14:26:20;;;;;;;24.52;20.10;;;;;;;;;;5053311;28;20403;-59